Time;durP1;ratioP1;P1;durP2;ratioP2;P2;SDS_P1;SDS_P2;PMS_P1;PMS_P2;Temp;Humidity;BMP_temperature;BMP_pressure;BME280_temperature;BME280_humidity;BME280_pressure;Samples;Min_cycle;Max_cycle;Signal;HPM_P1;HPM_P2
2023/06/15 00:02:24;;;;;;;4.82;1.88;;;25.80;49.90;;;;;;4208408;28;20059;-53
2023/06/15 00:05:06;;;;;;;3.65;1.92;;;25.90;49.00;;;;;;4206813;28;20062;-51
2023/06/15 00:07:48;;;;;;;3.50;2.35;;;25.80;48.90;;;;;;4208247;28;20054;-54
2023/06/15 00:10:30;;;;;;;1.85;1.75;;;25.80;48.80;;;;;;4208384;28;20042;-54
2023/06/15 00:13:11;;;;;;;4.47;2.03;;;25.80;48.90;;;;;;4207552;28;20446;-55
2023/06/15 00:15:51;;;;;;;4.43;2.17;;;25.80;48.70;;;;;;4208705;28;20059;-55
2023/06/15 00:18:37;;;;;;;;;;;25.80;48.70;;;;;;4207342;28;20112;-51
2023/06/15 00:21:18;;;;;;;4.05;1.92;;;25.80;48.90;;;;;;4208798;28;19927;-51
2023/06/15 00:24:00;;;;;;;;;;;25.80;49.20;;;;;;4209445;28;20055;-50
2023/06/15 00:26:44;;;;;;;1.90;1.80;;;25.80;49.20;;;;;;4211099;27;19927;-50
2023/06/15 00:29:25;;;;;;;3.88;2.50;;;25.80;49.50;;;;;;4242302;27;20057;-53
2023/06/15 00:32:06;;;;;;;;;;;25.80;49.30;;;;;;4243284;27;20058;-51
2023/06/15 00:34:47;;;;;;;;;;;25.80;49.40;;;;;;4228657;28;20075;-50
2023/06/15 00:37:28;;;;;;;4.05;2.30;;;25.70;49.70;;;;;;4223059;28;20357;-52
2023/06/15 00:40:11;;;;;;;4.53;2.03;;;25.70;49.80;;;;;;4224063;28;20062;-53
2023/06/15 00:42:52;;;;;;;3.00;2.38;;;25.70;49.30;;;;;;4207382;28;20160;-51
2023/06/15 00:45:33;;;;;;;5.97;2.33;;;25.70;49.20;;;;;;4210187;28;20185;-52
2023/06/15 00:48:14;;;;;;;;;;;25.70;49.30;;;;;;4222790;28;20058;-54
2023/06/15 00:50:55;;;;;;;3.67;2.50;;;25.70;49.50;;;;;;4212662;28;19931;-52
2023/06/15 00:53:37;;;;;;;2.08;1.90;;;25.70;49.70;;;;;;4225565;28;20065;-50
2023/06/15 00:56:20;;;;;;;2.42;2.30;;;25.70;49.50;;;;;;4225489;28;20533;-51
2023/06/15 00:59:00;;;;;;;3.47;2.60;;;25.70;49.30;;;;;;4229680;27;20116;-52
2023/06/15 01:01:42;;;;;;;2.80;2.50;;;25.70;49.40;;;;;;4242559;27;20427;-51
2023/06/15 01:04:25;;;;;;;2.53;2.33;;;25.60;49.40;;;;;;4241150;27;20062;-52
2023/06/15 01:07:10;;;;;;;3.30;2.28;;;25.70;49.50;;;;;;4222566;28;20050;-50
2023/06/15 01:09:52;;;;;;;6.32;2.63;;;25.60;49.40;;;;;;4222860;28;20055;-50
2023/06/15 01:12:40;;;;;;;2.90;2.70;;;25.60;49.40;;;;;;4208916;28;20063;-54
2023/06/15 01:15:22;;;;;;;3.42;2.80;;;25.60;49.40;;;;;;4204690;28;20895;-55
2023/06/15 01:18:04;;;;;;;5.95;2.45;;;25.60;49.40;;;;;;4206776;28;20178;-57
2023/06/15 01:20:48;;;;;;;3.28;2.53;;;25.60;49.30;;;;;;4207164;28;20086;-57
2023/06/15 01:23:37;;;;;;;4.03;2.38;;;25.60;49.30;;;;;;4206852;28;20047;-57
2023/06/15 01:26:24;;;;;;;4.95;2.80;;;25.60;49.20;;;;;;4207950;28;20046;-52
2023/06/15 01:29:06;;;;;;;3.45;2.50;;;25.60;49.90;;;;;;4212353;27;20465;-57
2023/06/15 01:31:47;;;;;;;3.42;2.50;;;25.60;49.40;;;;;;4240831;27;20131;-55
2023/06/15 01:34:28;;;;;;;4.07;2.70;;;25.60;49.50;;;;;;4242297;27;20507;-55
2023/06/15 01:37:09;;;;;;;3.08;2.40;;;25.50;49.50;;;;;;4242108;27;20062;-53
2023/06/15 01:39:50;;;;;;;5.32;2.45;;;25.50;49.50;;;;;;4226178;28;20050;-55
2023/06/15 01:42:33;;;;;;;3.92;3.13;;;25.50;49.50;;;;;;4242578;27;20081;-54
2023/06/15 01:45:15;;;;;;;5.43;2.72;;;25.50;49.50;;;;;;4245025;27;20177;-54
2023/06/15 01:47:57;;;;;;;4.82;2.63;;;25.50;49.50;;;;;;4243543;27;20131;-52
2023/06/15 01:50:41;;;;;;;3.63;2.72;;;25.50;49.50;;;;;;4245202;27;20184;-50
2023/06/15 01:53:22;;;;;;;6.40;3.50;;;25.50;49.60;;;;;;4237147;27;20054;-50
2023/06/15 01:56:03;;;;;;;;;;;25.50;49.60;;;;;;4210233;28;20062;-50
2023/06/15 01:58:45;;;;;;;3.47;3.15;;;25.50;49.70;;;;;;4226982;27;19942;-53
2023/06/15 02:01:26;;;;;;;5.07;2.80;;;25.40;49.90;;;;;;4226450;27;20058;-52
2023/06/15 02:04:07;;;;;;;6.25;2.90;;;25.40;49.70;;;;;;4213886;28;20063;-51
2023/06/15 02:06:48;;;;;;;5.32;3.03;;;25.40;49.70;;;;;;4234788;27;20053;-52
2023/06/15 02:09:30;;;;;;;7.07;3.55;;;25.40;49.70;;;;;;4231634;27;20127;-48
2023/06/15 02:12:12;;;;;;;4.50;2.92;;;25.40;49.80;;;;;;4230939;27;20058;-50
2023/06/15 02:14:54;;;;;;;3.80;2.70;;;25.40;49.90;;;;;;4209842;28;20059;-49
2023/06/15 02:17:38;;;;;;;5.65;2.45;;;25.40;49.90;;;;;;4210734;28;20055;-50
2023/06/15 02:20:19;;;;;;;8.00;3.40;;;25.30;50.00;;;;;;4233608;27;20214;-49
2023/06/15 02:23:00;;;;;;;;;;;25.30;50.00;;;;;;4244636;27;20057;-50
2023/06/15 02:25:42;;;;;;;2.95;2.50;;;25.30;50.10;;;;;;4231676;27;19926;-50
2023/06/15 02:28:22;;;;;;;3.42;3.13;;;25.30;50.30;;;;;;4242253;27;20405;-50
2023/06/15 02:31:06;;;;;;;6.18;3.15;;;25.30;50.30;;;;;;4210543;27;20059;-51
2023/06/15 02:33:46;;;;;;;5.78;3.08;;;25.30;50.20;;;;;;4226340;28;20058;-51
2023/06/15 02:36:28;;;;;;;3.45;3.15;;;25.30;50.20;;;;;;4227368;27;20062;-52
2023/06/15 02:39:10;;;;;;;3.70;2.60;;;25.30;50.20;;;;;;4230525;27;20201;-50
2023/06/15 02:41:51;;;;;;;7.38;3.42;;;25.20;50.10;;;;;;4242615;27;20050;-53
2023/06/15 02:44:32;;;;;;;;;;;25.30;50.20;;;;;;4243526;27;20067;-50
2023/06/15 02:47:15;;;;;;;3.72;3.40;;;25.20;50.20;;;;;;4224986;27;19931;-50
2023/06/15 02:49:58;;;;;;;6.35;3.00;;;25.20;51.20;;;;;;4208495;28;20504;-49
2023/06/15 02:52:45;;;;;;;3.50;3.15;;;25.20;50.30;;;;;;4224462;28;20055;-53
2023/06/15 02:55:27;;;;;;;4.25;2.97;;;25.20;50.40;;;;;;4208481;28;20039;-53
2023/06/15 02:58:08;;;;;;;;;;;25.20;50.40;;;;;;4201770;28;20067;-54
2023/06/15 03:01:09;;;;;;;9.10;2.92;;;25.20;50.50;;;;;;4217329;27;19931;-51
2023/06/15 03:03:58;;;;;;;8.23;3.10;;;25.20;51.40;;;;;;4213908;27;20051;-54
2023/06/15 03:06:40;;;;;;;4.70;2.60;;;25.10;50.50;;;;;;4208806;28;20053;-52
2023/06/15 03:09:26;;;;;;;5.32;3.03;;;25.20;50.60;;;;;;4221560;27;20405;-51
2023/06/15 03:12:08;;;;;;;6.88;3.25;;;25.20;50.60;;;;;;4201230;28;20058;-52
2023/06/15 03:14:53;;;;;;;3.25;2.90;;;25.10;50.50;;;;;;4223784;28;20050;-52
2023/06/15 03:17:34;;;;;;;4.20;2.92;;;25.10;50.50;;;;;;4225461;27;20054;-52
2023/06/15 03:20:18;;;;;;;3.47;2.80;;;25.10;50.40;;;;;;4208313;28;20141;-49
2023/06/15 03:23:00;;;;;;;7.35;3.90;;;25.10;50.40;;;;;;4195328;28;20475;-51
2023/06/15 03:25:41;;;;;;;3.67;3.20;;;25.10;50.60;;;;;;4208174;28;20125;-54
2023/06/15 03:28:24;;;;;;;5.30;3.60;;;25.10;50.40;;;;;;4223722;28;20550;-53
2023/06/15 03:31:05;;;;;;;4.70;3.80;;;25.10;50.50;;;;;;4210967;28;20144;-55
2023/06/15 03:33:46;;;;;;;;;;;25.10;50.60;;;;;;4233526;27;20398;-53
2023/06/15 03:36:31;;;;;;;5.93;3.10;;;25.00;50.60;;;;;;4243293;27;20273;-52
2023/06/15 03:39:12;;;;;;;6.00;3.90;;;25.00;50.80;;;;;;4241973;27;20050;-52
2023/06/15 03:41:54;;;;;;;4.35;3.25;;;25.00;50.70;;;;;;4220087;28;20059;-48
2023/06/15 03:44:34;;;;;;;4.55;2.85;;;25.00;50.70;;;;;;4209385;28;20059;-48
2023/06/15 03:47:15;;;;;;;4.35;3.10;;;25.00;50.60;;;;;;4208447;28;20050;-51
2023/06/15 03:49:56;;;;;;;;;;;25.00;51.40;;;;;;4210037;28;20043;-49
2023/06/15 03:52:39;;;;;;;4.30;3.85;;;25.00;50.70;;;;;;4209293;28;19931;-48
2023/06/15 03:55:20;;;;;;;4.93;3.80;;;25.00;50.80;;;;;;4207605;28;20051;-50
2023/06/15 03:58:03;;;;;;;5.45;3.25;;;25.00;50.70;;;;;;4221078;28;20055;-49
2023/06/15 04:00:45;;;;;;;7.50;3.58;;;25.00;50.70;;;;;;4224656;28;20055;-53
2023/06/15 04:03:27;;;;;;;4.35;3.15;;;25.00;50.70;;;;;;4212117;28;20054;-54
2023/06/15 04:06:08;;;;;;;7.55;3.50;;;25.00;50.80;;;;;;4225854;28;20063;-50
2023/06/15 04:08:51;;;;;;;7.22;3.55;;;24.90;50.80;;;;;;4224385;28;20043;-51
2023/06/15 04:11:35;;;;;;;3.88;3.50;;;24.90;50.80;;;;;;4224595;28;20583;-50
2023/06/15 04:14:18;;;;;;;4.60;3.20;;;24.90;50.90;;;;;;4224470;28;20112;-49
2023/06/15 04:17:00;;;;;;;5.18;3.67;;;24.90;50.90;;;;;;4207973;28;20095;-52
2023/06/15 04:19:41;;;;;;;4.00;3.38;;;25.00;51.00;;;;;;4207742;28;20047;-56
2023/06/15 04:22:22;;;;;;;;;;;24.90;50.90;;;;;;4209312;28;20101;-50
2023/06/15 04:25:09;;;;;;;4.88;3.60;;;25.00;51.00;;;;;;4223121;27;20046;-48
2023/06/15 04:27:52;;;;;;;3.95;3.40;;;24.90;51.20;;;;;;4242748;27;20054;-49
2023/06/15 04:30:37;;;;;;;4.05;3.20;;;24.90;51.20;;;;;;4225510;27;20062;-50
2023/06/15 04:33:19;;;;;;;9.07;3.90;;;24.90;51.20;;;;;;4222512;28;20506;-47
2023/06/15 04:36:01;;;;;;;4.40;3.50;;;24.90;51.30;;;;;;4207171;28;20502;-47
2023/06/15 04:38:46;;;;;;;7.30;3.95;;;25.00;51.40;;;;;;4207525;28;20055;-48
2023/06/15 04:41:31;;;;;;;6.22;3.88;;;25.00;51.30;;;;;;4207536;28;20460;-46
2023/06/15 04:44:16;;;;;;;5.10;3.17;;;25.00;51.20;;;;;;4236330;27;20050;-46
2023/06/15 04:46:58;;;;;;;6.28;4.00;;;25.00;51.10;;;;;;4236163;27;20057;-46
2023/06/15 04:49:41;;;;;;;4.95;3.50;;;25.00;51.00;;;;;;4223742;28;20047;-48
2023/06/15 04:52:22;;;;;;;4.25;3.17;;;25.00;51.20;;;;;;4208953;28;20071;-53
2023/06/15 04:55:04;;;;;;;6.00;3.33;;;25.00;51.20;;;;;;4237456;27;20066;-47
2023/06/15 04:57:46;;;;;;;5.20;3.30;;;25.00;51.00;;;;;;4224145;28;20406;-48
2023/06/15 05:00:27;;;;;;;8.35;3.70;;;25.10;51.00;;;;;;4224343;28;20078;-47
2023/06/15 05:03:13;;;;;;;6.40;3.10;;;25.10;51.00;;;;;;4224149;28;20058;-47
2023/06/15 05:05:55;;;;;;;14.18;3.60;;;25.10;51.10;;;;;;4206931;28;20055;-50
2023/06/15 05:08:37;;;;;;;16.50;3.67;;;25.10;51.00;;;;;;4220786;28;20055;-49
2023/06/15 05:11:19;;;;;;;5.68;3.50;;;25.10;51.10;;;;;;4212971;28;20054;-53
2023/06/15 05:14:03;;;;;;;8.55;3.22;;;25.10;51.00;;;;;;4215103;27;20500;-50
2023/06/15 05:16:45;;;;;;;3.75;3.00;;;25.00;50.90;;;;;;4227494;28;20050;-49
2023/06/15 05:19:27;;;;;;;9.43;3.35;;;25.00;51.00;;;;;;4210721;28;20046;-49
2023/06/15 05:22:09;;;;;;;4.15;3.28;;;25.10;50.80;;;;;;4208420;28;20059;-49
2023/06/15 05:24:52;;;;;;;8.25;3.33;;;25.20;50.90;;;;;;4210426;28;20493;-47
2023/06/15 05:27:35;;;;;;;2.65;2.42;;;25.20;51.10;;;;;;4210670;28;20058;-46
2023/06/15 05:30:17;;;;;;;2.88;2.67;;;25.30;51.00;;;;;;4217322;27;20177;-49
2023/06/15 05:32:58;;;;;;;5.55;2.95;;;25.50;50.80;;;;;;4228433;27;20050;-50
2023/06/15 05:35:39;;;;;;;9.85;2.75;;;25.60;50.50;;;;;;4228364;27;20425;-50
2023/06/15 05:38:21;;;;;;;7.28;3.05;;;25.70;50.20;;;;;;4227105;28;20046;-54
2023/06/15 05:41:02;;;;;;;2.90;2.67;;;25.80;50.10;;;;;;4226810;28;20051;-54
2023/06/15 05:43:43;;;;;;;3.70;2.80;;;25.90;49.80;;;;;;4226288;28;20051;-53
2023/06/15 05:46:26;;;;;;;4.13;2.70;;;25.90;49.50;;;;;;4228285;27;20143;-48
2023/06/15 05:49:08;;;;;;;3.67;2.42;;;26.00;49.30;;;;;;4231380;27;20060;-48
2023/06/15 05:51:49;;;;;;;3.00;2.45;;;26.10;49.20;;;;;;4197539;28;20098;-48
2023/06/15 05:54:32;;;;;;;38.88;9.10;;;26.10;49.10;;;;;;4211675;28;20051;-50
2023/06/15 05:57:13;;;;;;;5.85;3.05;;;26.10;48.70;;;;;;4215443;28;20112;-49
2023/06/15 05:59:56;;;;;;;2.90;2.70;;;26.10;48.70;;;;;;4243681;27;20631;-53
2023/06/15 06:02:39;;;;;;;;;;;26.00;48.30;;;;;;4232400;27;20050;-50
2023/06/15 06:05:20;;;;;;;4.35;2.22;;;26.10;48.80;;;;;;4241218;27;19980;-51
2023/06/15 06:08:02;;;;;;;;;;;26.00;49.10;;;;;;4228191;27;20493;-49
2023/06/15 06:10:43;;;;;;;3.42;2.50;;;26.00;49.00;;;;;;4212879;28;19947;-49
2023/06/15 06:13:50;;;;;;;3.50;2.50;;;26.00;48.70;;;;;;4223933;27;20054;-50
2023/06/15 06:16:32;;;;;;;3.33;2.40;;;26.10;48.70;;;;;;4216932;28;20530;-50
2023/06/15 06:19:15;;;;;;;3.50;2.40;;;26.10;48.90;;;;;;4214132;27;20070;-49
2023/06/15 06:21:57;;;;;;;2.92;2.00;;;26.10;48.50;;;;;;4227552;27;20058;-51
2023/06/15 06:24:38;;;;;;;3.20;2.28;;;26.20;47.90;;;;;;4243908;27;20058;-46
2023/06/15 06:27:21;;;;;;;7.28;2.80;;;26.30;47.70;;;;;;4219100;27;20054;-48
2023/06/15 06:30:01;;;;;;;3.60;2.42;;;26.30;47.50;;;;;;4220440;27;20051;-49
2023/06/15 06:32:43;;;;;;;4.95;2.40;;;26.40;47.30;;;;;;4223492;27;20051;-51
2023/06/15 06:35:25;;;;;;;;;;;26.40;46.90;;;;;;4210878;28;20038;-50
2023/06/15 06:38:06;;;;;;;2.40;2.15;;;26.40;47.10;;;;;;4219889;28;19927;-50
2023/06/15 06:40:47;;;;;;;2.45;2.25;;;26.40;47.40;;;;;;4208929;28;20560;-46
2023/06/15 06:43:28;;;;;;;2.85;2.55;;;26.50;47.60;;;;;;4238536;27;20053;-46
2023/06/15 06:46:09;;;;;;;9.50;2.55;;;26.50;47.30;;;;;;4235337;27;20054;-47
2023/06/15 06:48:50;;;;;;;3.47;2.58;;;26.50;46.80;;;;;;4209040;28;20270;-46
2023/06/15 06:51:32;;;;;;;4.40;2.22;;;26.60;46.40;;;;;;4225826;27;20051;-47
2023/06/15 06:54:13;;;;;;;5.93;2.35;;;26.60;46.10;;;;;;4227710;27;20057;-48
2023/06/15 06:56:54;;;;;;;3.25;2.15;;;26.70;46.70;;;;;;4210514;28;20047;-47
2023/06/15 06:59:35;;;;;;;;;;;26.70;46.70;;;;;;4210406;28;20038;-47
2023/06/15 07:02:18;;;;;;;4.93;2.22;;;26.80;46.70;;;;;;4215792;27;19969;-47
2023/06/15 07:04:59;;;;;;;;;;;26.80;47.30;;;;;;4225955;27;20049;-51
2023/06/15 07:07:41;;;;;;;4.20;2.20;;;26.90;45.90;;;;;;4225537;28;19926;-52
2023/06/15 07:10:22;;;;;;;4.07;3.00;;;26.90;46.10;;;;;;4225768;27;20059;-52
2023/06/15 07:13:04;;;;;;;4.32;2.58;;;26.90;46.10;;;;;;4219941;27;20051;-48
2023/06/15 07:15:45;;;;;;;3.10;2.40;;;26.90;45.90;;;;;;4237591;27;20390;-51
2023/06/15 07:18:26;;;;;;;2.83;2.15;;;27.00;45.80;;;;;;4224036;27;20059;-52
2023/06/15 07:21:07;;;;;;;4.03;2.80;;;27.00;46.00;;;;;;4224187;27;20141;-52
2023/06/15 07:23:50;;;;;;;;;;;27.00;46.00;;;;;;4229016;27;20518;-53
2023/06/15 07:26:34;;;;;;;6.55;2.90;;;27.00;46.00;;;;;;4224198;27;19976;-52
2023/06/15 07:29:15;;;;;;;2.92;2.53;;;27.00;45.30;;;;;;4226379;27;20180;-49
2023/06/15 07:31:56;;;;;;;2.58;2.22;;;27.00;45.20;;;;;;4224121;27;20090;-50
2023/06/15 07:34:37;;;;;;;;;;;27.00;45.20;;;;;;4224139;27;20054;-48
2023/06/15 07:37:18;;;;;;;3.08;2.60;;;27.00;45.50;;;;;;4224496;27;19942;-52
2023/06/15 07:40:01;;;;;;;3.05;2.42;;;27.00;45.60;;;;;;4239093;27;20054;-48
2023/06/15 07:42:42;;;;;;;3.10;2.72;;;26.90;45.50;;;;;;4232101;27;20173;-48
2023/06/15 07:45:24;;;;;;;6.13;2.97;;;26.90;45.60;;;;;;4223726;27;20051;-50
2023/06/15 07:48:05;;;;;;;;;;;26.90;45.10;;;;;;4224446;27;20062;-53
2023/06/15 07:50:46;;;;;;;2.38;2.10;;;26.90;45.40;;;;;;4228722;27;19966;-54
2023/06/15 07:53:27;;;;;;;6.57;3.38;;;26.90;45.80;;;;;;4223990;27;20054;-54
2023/06/15 07:56:09;;;;;;;4.05;2.40;;;26.80;45.60;;;;;;4224903;27;20073;-52
2023/06/15 07:58:51;;;;;;;4.22;2.40;;;26.80;45.70;;;;;;4223307;27;20503;-51
2023/06/15 08:01:32;;;;;;;4.80;2.78;;;26.80;46.10;;;;;;4223828;27;20412;-54
2023/06/15 08:04:14;;;;;;;4.90;2.55;;;26.80;45.60;;;;;;4223658;27;20189;-54
2023/06/15 08:06:55;;;;;;;3.10;2.70;;;26.80;46.10;;;;;;4223590;27;20058;-52
2023/06/15 08:09:36;;;;;;;;;;;26.80;44.80;;;;;;4230109;27;20059;-52
2023/06/15 08:12:19;;;;;;;2.67;2.47;;;26.70;45.00;;;;;;4222292;27;19938;-52
2023/06/15 08:15:00;;;;;;;5.75;2.70;;;26.70;44.70;;;;;;4228144;27;20046;-52
2023/06/15 08:17:41;;;;;;;3.53;2.58;;;26.70;45.00;;;;;;4233097;27;20054;-53
2023/06/15 08:20:22;;;;;;;7.00;2.47;;;26.70;44.20;;;;;;4222136;27;20583;-48
2023/06/15 08:23:03;;;;;;;2.60;2.40;;;26.70;43.80;;;;;;4223451;27;20051;-48
2023/06/15 08:25:46;;;;;;;6.00;2.65;;;26.60;44.20;;;;;;4236639;27;20058;-48
2023/06/15 08:28:29;;;;;;;3.53;2.38;;;26.60;44.10;;;;;;4230175;27;20070;-49
2023/06/15 08:31:15;;;;;;;2.85;2.38;;;26.60;44.00;;;;;;4222797;28;20193;-50
2023/06/15 08:33:56;;;;;;;3.72;2.67;;;26.60;44.60;;;;;;4227240;27;20065;-52
2023/06/15 08:36:37;;;;;;;2.63;2.42;;;26.60;43.90;;;;;;4239818;27;20054;-48
2023/06/15 08:39:18;;;;;;;3.55;2.78;;;26.60;44.30;;;;;;4229038;27;20196;-51
2023/06/15 08:42:01;;;;;;;;;;;26.60;43.90;;;;;;4223481;27;20519;-50
2023/06/15 08:44:46;;;;;;;2.30;2.20;;;26.60;43.90;;;;;;4221856;27;19938;-48
2023/06/15 08:47:28;;;;;;;4.60;2.45;;;26.60;44.50;;;;;;4224052;27;20165;-48
2023/06/15 08:50:10;;;;;;;3.35;2.40;;;26.70;44.50;;;;;;4237831;27;20074;-49
2023/06/15 08:52:51;;;;;;;4.78;2.38;;;26.60;45.00;;;;;;4230793;27;20058;-47
2023/06/15 08:55:33;;;;;;;4.15;2.47;;;26.70;44.50;;;;;;4226319;27;20050;-51
2023/06/15 08:58:15;;;;;;;2.45;2.13;;;26.70;44.00;;;;;;4231383;27;21031;-49
2023/06/15 09:01:00;;;;;;;3.15;2.60;;;26.70;43.90;;;;;;4235588;27;20066;-51
2023/06/15 09:03:42;;;;;;;2.72;2.25;;;26.70;43.70;;;;;;4238569;27;20053;-52
2023/06/15 09:06:24;;;;;;;2.80;2.60;;;26.70;43.60;;;;;;4231277;27;20055;-51
2023/06/15 09:09:05;;;;;;;4.38;2.95;;;26.80;42.80;;;;;;4213150;27;20059;-49
2023/06/15 09:11:46;;;;;;;2.70;2.50;;;26.80;42.90;;;;;;4233538;27;20188;-51
2023/06/15 09:14:27;;;;;;;;;;;26.80;42.80;;;;;;4218329;27;20137;-54
2023/06/15 09:17:19;;;;;;;2.50;2.35;;;26.80;42.60;;;;;;4209648;28;19935;-49
2023/06/15 09:20:01;;;;;;;4.00;2.10;;;26.80;43.10;;;;;;4208684;28;20136;-48
2023/06/15 09:22:43;;;;;;;;;;;26.80;42.80;;;;;;4210156;27;20559;-51
2023/06/15 09:25:24;;;;;;;2.85;2.30;;;26.90;42.60;;;;;;4217095;27;19973;-52
2023/06/15 09:28:06;;;;;;;3.40;2.53;;;26.90;42.50;;;;;;4225123;27;20062;-48
2023/06/15 09:30:54;;;;;;;4.32;2.40;;;26.90;42.20;;;;;;4224954;27;20054;-51
2023/06/15 09:33:36;;;;;;;5.05;2.50;;;26.90;41.00;;;;;;4225315;27;20054;-50
2023/06/15 09:36:18;;;;;;;2.70;2.50;;;27.00;41.00;;;;;;4225777;27;20108;-49
2023/06/15 09:38:59;;;;;;;3.63;2.58;;;26.90;41.30;;;;;;4223171;27;20054;-53
2023/06/15 09:41:52;;;;;;;2.78;2.50;;;27.00;41.00;;;;;;4224299;27;20068;-49
2023/06/15 09:44:34;;;;;;;2.83;2.30;;;27.00;41.10;;;;;;4225983;27;20054;-52
2023/06/15 09:47:16;;;;;;;3.38;2.50;;;27.00;41.00;;;;;;4225511;27;20059;-49
2023/06/15 09:49:59;;;;;;;5.35;2.63;;;27.00;40.60;;;;;;4223993;27;20050;-50
2023/06/15 09:52:44;;;;;;;3.05;2.20;;;27.00;40.10;;;;;;4230820;27;20070;-49
2023/06/15 09:55:25;;;;;;;7.03;2.80;;;27.00;40.60;;;;;;4238277;27;20058;-52
2023/06/15 09:58:07;;;;;;;3.42;2.42;;;27.10;40.10;;;;;;4223605;27;20074;-53
2023/06/15 10:00:51;;;;;;;4.07;2.67;;;27.10;39.90;;;;;;4237971;27;20062;-52
2023/06/15 10:03:33;;;;;;;6.35;2.47;;;27.10;39.70;;;;;;4223734;27;20090;-49
2023/06/15 10:06:17;;;;;;;4.93;2.50;;;27.10;39.10;;;;;;4227270;27;20524;-47
2023/06/15 10:09:04;;;;;;;4.50;2.53;;;27.20;39.30;;;;;;4231757;27;20054;-51
2023/06/15 10:11:50;;;;;;;5.50;2.83;;;27.20;39.30;;;;;;4224851;27;20058;-48
2023/06/15 10:14:38;;;;;;;6.38;2.42;;;27.20;39.00;;;;;;4240296;27;20046;-48
2023/06/15 10:17:30;;;;;;;2.55;2.33;;;27.20;38.50;;;;;;4219229;28;20605;-54
2023/06/15 10:20:17;;;;;;;2.50;2.30;;;27.20;39.00;;;;;;4216716;27;20099;-51
2023/06/15 10:23:04;;;;;;;2.78;2.55;;;27.30;39.10;;;;;;4237538;27;20164;-54
2023/06/15 10:25:45;;;;;;;2.65;2.45;;;27.30;38.90;;;;;;4237624;27;20050;-51
2023/06/15 10:28:29;;;;;;;3.95;2.67;;;27.30;38.60;;;;;;4223671;27;20505;-53
2023/06/15 10:31:23;;;;;;;3.17;2.47;;;27.30;38.10;;;;;;4224440;27;20100;-51
2023/06/15 10:34:08;;;;;;;3.30;2.58;;;27.30;38.20;;;;;;4223405;27;20150;-52
2023/06/15 10:36:57;;;;;;;5.65;2.75;;;27.40;39.20;;;;;;4224860;27;20071;-52
2023/06/15 10:39:44;;;;;;;2.95;2.45;;;27.40;38.80;;;;;;4223584;27;20059;-53
2023/06/15 10:42:27;;;;;;;5.13;2.78;;;27.40;39.40;;;;;;4225308;27;20051;-52
2023/06/15 10:45:29;;;;;;;5.60;2.92;;;27.40;39.40;;;;;;4225838;27;20074;-53
2023/06/15 10:48:21;;;;;;;7.10;2.33;;;27.40;39.10;;;;;;4223593;27;20085;-51
2023/06/15 10:51:04;;;;;;;6.13;2.80;;;27.40;38.80;;;;;;4223866;27;20062;-50
2023/06/15 10:53:46;;;;;;;6.25;2.60;;;27.40;38.60;;;;;;4224185;27;20078;-55
2023/06/15 10:56:28;;;;;;;2.33;2.22;;;27.40;37.60;;;;;;4230588;27;20394;-52
2023/06/15 10:59:09;;;;;;;2.88;2.28;;;27.40;37.90;;;;;;4223723;27;20050;-52
2023/06/15 11:01:50;;;;;;;2.42;2.20;;;27.50;37.60;;;;;;4223585;27;20059;-52
2023/06/15 11:04:32;;;;;;;3.60;2.65;;;27.40;37.50;;;;;;4223805;27;20050;-53
2023/06/15 11:07:27;;;;;;;2.90;2.63;;;27.50;37.50;;;;;;4226837;27;20494;-51
2023/06/15 11:10:14;;;;;;;3.53;2.38;;;27.50;36.80;;;;;;4223177;27;20188;-53
2023/06/15 11:13:03;;;;;;;2.40;2.20;;;27.50;36.50;;;;;;4224791;27;20490;-49
2023/06/15 11:15:44;;;;;;;2.25;1.90;;;27.50;37.40;;;;;;4223268;27;20062;-50
2023/06/15 11:18:24;;;;;;;3.22;2.22;;;27.50;38.20;;;;;;4229194;27;20054;-50
2023/06/15 11:21:05;;;;;;;4.78;2.70;;;27.50;37.90;;;;;;4242504;27;20058;-53
2023/06/15 11:23:57;;;;;;;3.85;2.60;;;27.50;37.40;;;;;;4238195;27;20072;-52
2023/06/15 11:26:40;;;;;;;2.58;2.47;;;27.50;37.40;;;;;;4224712;27;20063;-51
2023/06/15 11:29:25;;;;;;;4.82;2.58;;;27.50;36.00;;;;;;4226427;27;20130;-53
2023/06/15 11:32:07;;;;;;;2.95;2.17;;;27.50;35.50;;;;;;4223886;28;20047;-50
2023/06/15 11:34:48;;;;;;;3.17;2.20;;;27.50;36.00;;;;;;4221538;27;20054;-51
2023/06/15 11:37:29;;;;;;;2.95;2.47;;;27.50;35.50;;;;;;4226312;27;20224;-46
2023/06/15 11:40:11;;;;;;;4.07;2.05;;;27.50;34.90;;;;;;4226059;28;20108;-47
2023/06/15 11:42:53;;;;;;;2.67;2.40;;;27.50;35.20;;;;;;4226518;27;20181;-49
2023/06/15 11:45:35;;;;;;;2.67;2.47;;;27.50;35.30;;;;;;4209680;28;20804;-49
2023/06/15 11:48:17;;;;;;;4.40;2.50;;;27.60;34.80;;;;;;4209466;28;20402;-52
2023/06/15 11:50:58;;;;;;;2.53;2.25;;;27.60;35.70;;;;;;4209161;28;20050;-48
2023/06/15 11:53:39;;;;;;;4.20;2.40;;;27.60;35.90;;;;;;4221182;27;20047;-49
2023/06/15 11:56:21;;;;;;;3.33;2.45;;;27.60;35.70;;;;;;4224389;27;20147;-49
2023/06/15 11:59:03;;;;;;;2.60;2.10;;;27.60;35.80;;;;;;4225542;27;20050;-50
2023/06/15 12:01:45;;;;;;;2.53;2.20;;;27.60;35.90;;;;;;4209186;28;20055;-48
2023/06/15 12:04:31;;;;;;;3.67;2.28;;;27.60;34.70;;;;;;4225050;27;20470;-46
2023/06/15 12:07:13;;;;;;;5.45;2.28;;;27.60;34.20;;;;;;4225286;28;20501;-47
2023/06/15 12:10:12;;;;;;;5.80;2.40;;;27.70;34.90;;;;;;4208319;28;20063;-48
2023/06/15 12:12:53;;;;;;;2.13;2.00;;;27.70;35.30;;;;;;4239690;27;20127;-53
2023/06/15 12:15:39;;;;;;;4.32;2.22;;;27.70;35.30;;;;;;4243014;27;20079;-54
2023/06/15 12:18:21;;;;;;;2.20;2.10;;;27.70;35.00;;;;;;4242672;27;20062;-48
2023/06/15 12:21:03;;;;;;;2.45;2.10;;;27.70;35.50;;;;;;4242266;27;20093;-50
2023/06/15 12:23:49;;;;;;;4.93;2.20;;;27.70;34.80;;;;;;4206697;28;20117;-49
2023/06/15 12:26:31;;;;;;;2.50;2.38;;;27.80;34.00;;;;;;4208315;28;20501;-47
2023/06/15 12:29:17;;;;;;;3.42;2.40;;;27.80;35.40;;;;;;4208553;28;20177;-49
2023/06/15 12:31:59;;;;;;;5.35;2.60;;;27.80;35.70;;;;;;4215383;27;20050;-48
2023/06/15 12:34:41;;;;;;;4.35;2.30;;;27.80;36.30;;;;;;4225363;28;20093;-47
2023/06/15 12:37:22;;;;;;;4.43;2.25;;;27.80;36.50;;;;;;4225135;28;20047;-55
2023/06/15 12:40:04;;;;;;;3.10;2.47;;;27.80;36.80;;;;;;4225178;28;20063;-54
2023/06/15 12:42:46;;;;;;;2.55;2.40;;;27.80;36.90;;;;;;4238388;27;20309;-52
2023/06/15 12:45:26;;;;;;;11.00;2.75;;;27.80;37.10;;;;;;4241989;27;20401;-51
2023/06/15 12:48:07;;;;;;;3.28;2.35;;;27.80;37.30;;;;;;4242245;27;20054;-54
2023/06/15 12:50:51;;;;;;;3.05;2.42;;;27.80;37.50;;;;;;4241112;27;20099;-47
2023/06/15 12:53:32;;;;;;;2.08;1.92;;;27.80;37.80;;;;;;4208393;28;20053;-48
2023/06/15 12:56:13;;;;;;;4.25;2.65;;;27.80;38.10;;;;;;4208635;28;20055;-49
2023/06/15 12:58:54;;;;;;;2.92;2.70;;;27.80;38.20;;;;;;4208530;28;20394;-50
2023/06/15 13:01:35;;;;;;;;;;;27.80;38.40;;;;;;4215141;27;20051;-49
2023/06/15 13:04:16;;;;;;;3.47;2.60;;;27.80;38.60;;;;;;4232840;27;19926;-51
2023/06/15 13:06:59;;;;;;;6.80;2.25;;;27.70;38.60;;;;;;4241581;27;20180;-47
2023/06/15 13:09:39;;;;;;;2.90;2.45;;;27.70;38.80;;;;;;4242116;27;20051;-53
2023/06/15 13:12:20;;;;;;;2.58;2.40;;;27.70;38.80;;;;;;4233938;27;20054;-52
2023/06/15 13:15:01;;;;;;;;;;;27.70;38.80;;;;;;4242242;27;20062;-49
2023/06/15 13:17:42;;;;;;;;;;;27.70;39.10;;;;;;4242647;27;20052;-51
2023/06/15 13:20:23;;;;;;;5.15;2.55;;;27.70;39.10;;;;;;4242324;27;19931;-46
2023/06/15 13:23:06;;;;;;;3.15;2.10;;;27.70;39.10;;;;;;4242206;27;20519;-52
2023/06/15 13:25:47;;;;;;;5.22;2.63;;;27.70;39.10;;;;;;4242119;27;20066;-49
2023/06/15 13:28:28;;;;;;;2.55;2.35;;;27.70;39.20;;;;;;4240711;27;20111;-48
2023/06/15 13:31:10;;;;;;;3.53;2.45;;;27.70;39.30;;;;;;4240214;27;20449;-48
2023/06/15 13:33:51;;;;;;;5.82;2.90;;;27.70;39.20;;;;;;4241372;27;20058;-48
2023/06/15 13:36:32;;;;;;;4.20;2.80;;;27.70;39.30;;;;;;4245054;27;20398;-51
2023/06/15 13:39:15;;;;;;;3.55;2.50;;;27.70;39.30;;;;;;4244976;27;20054;-48
2023/06/15 13:41:56;;;;;;;3.65;2.40;;;27.70;39.50;;;;;;4243230;27;20117;-49
2023/06/15 13:44:37;;;;;;;3.33;2.30;;;27.60;39.40;;;;;;4245143;27;20046;-50
2023/06/15 13:47:19;;;;;;;5.05;2.55;;;27.60;39.60;;;;;;4245115;27;20058;-49
2023/06/15 13:50:01;;;;;;;2.63;2.40;;;27.60;39.80;;;;;;4245187;27;20042;-52
2023/06/15 13:52:46;;;;;;;3.17;2.58;;;27.60;39.90;;;;;;4242034;27;20050;-52
2023/06/15 13:55:29;;;;;;;10.23;3.30;;;27.60;39.90;;;;;;4244575;27;20050;-49
2023/06/15 13:58:10;;;;;;;4.63;2.75;;;27.60;39.80;;;;;;4243650;27;20084;-51
2023/06/15 14:00:51;;;;;;;5.07;3.13;;;27.60;39.80;;;;;;4242720;27;20076;-52
2023/06/15 14:03:33;;;;;;;4.80;2.30;;;27.60;39.70;;;;;;4213613;28;20078;-50
2023/06/15 14:06:15;;;;;;;3.63;3.03;;;27.60;39.70;;;;;;4210659;28;20046;-50
2023/06/15 14:08:56;;;;;;;6.50;2.80;;;27.50;39.50;;;;;;4215553;28;20047;-49
2023/06/15 14:11:38;;;;;;;3.03;2.78;;;27.50;39.50;;;;;;4209456;27;20390;-47
2023/06/15 14:14:19;;;;;;;4.22;2.60;;;27.50;39.40;;;;;;4239590;27;20054;-51